createdAt,value
2019-03-18T00:00:24.932Z,2.60
2019-03-18T00:02:53.593Z,2.90
2019-03-18T00:05:22.253Z,2.75
2019-03-18T00:07:50.934Z,3.10
2019-03-18T00:10:19.585Z,2.75
2019-03-18T00:12:48.253Z,2.65
2019-03-18T00:15:16.915Z,2.75
2019-03-18T00:17:45.573Z,3.00
2019-03-18T00:20:14.233Z,3.05
2019-03-18T00:22:42.893Z,3.25
2019-03-18T00:25:14.650Z,2.85
2019-03-18T00:27:43.337Z,3.40
2019-03-18T00:30:16.469Z,3.02
2019-03-18T00:32:45.131Z,2.60
2019-03-18T00:35:13.798Z,2.55
2019-03-18T00:37:42.453Z,2.50
2019-03-18T00:40:15.733Z,2.80
2019-03-18T00:42:44.405Z,2.80
2019-03-18T00:45:15.155Z,2.58
2019-03-18T00:47:43.571Z,2.60
2019-03-18T00:50:13.534Z,2.62
2019-03-18T00:52:42.203Z,2.80
2019-03-18T00:55:10.864Z,2.60
2019-03-18T00:57:39.528Z,2.17
2019-03-18T01:00:12.778Z,2.33
2019-03-18T01:02:41.449Z,2.40
2019-03-18T01:05:10.412Z,2.70
2019-03-18T01:07:39.071Z,3.20
2019-03-18T01:10:13.751Z,3.17
2019-03-18T01:12:42.411Z,3.20
2019-03-18T01:15:11.573Z,3.37
2019-03-18T01:17:40.239Z,4.00
2019-03-18T01:20:10.210Z,2.80
2019-03-18T01:22:38.868Z,3.00
2019-03-18T01:25:08.645Z,3.37
2019-03-18T01:27:37.310Z,3.25
2019-03-18T01:30:08.277Z,3.30
2019-03-18T01:32:36.942Z,2.95
2019-03-18T01:35:07.101Z,2.60
2019-03-18T01:37:35.764Z,3.17
2019-03-18T01:40:06.825Z,3.17
2019-03-18T01:42:35.485Z,2.70
2019-03-18T01:45:05.252Z,3.20
2019-03-18T01:47:33.913Z,3.27
2019-03-18T01:50:02.577Z,2.67
2019-03-18T01:52:31.336Z,3.10
2019-03-18T01:55:00.006Z,2.62
2019-03-18T01:57:28.665Z,3.22
2019-03-18T01:59:57.328Z,3.12
2019-03-18T02:02:25.997Z,3.27
2019-03-18T02:04:54.656Z,3.02
2019-03-18T02:07:23.337Z,3.05
2019-03-18T02:09:52.003Z,3.98
2019-03-18T02:12:20.661Z,3.25
2019-03-18T02:14:51.573Z,2.90
2019-03-18T02:19:48.144Z,2.98
2019-03-18T02:22:16.810Z,2.90
2019-03-18T02:24:45.472Z,2.83
2019-03-18T02:27:14.130Z,3.60
2019-03-18T02:29:42.796Z,4.03
2019-03-18T02:32:11.453Z,7.70
2019-03-18T02:34:40.135Z,5.55
2019-03-18T02:37:08.794Z,4.20
2019-03-18T02:39:37.460Z,2.67
2019-03-18T02:42:06.126Z,3.00
2019-03-18T02:44:34.825Z,3.77
2019-03-18T02:47:03.489Z,5.33
2019-03-18T02:49:32.151Z,3.35
2019-03-18T02:52:00.817Z,3.30
2019-03-18T02:54:29.487Z,4.05
2019-03-18T02:56:58.151Z,3.05
2019-03-18T02:59:26.773Z,2.90
2019-03-18T03:01:55.402Z,2.80
2019-03-18T03:04:24.083Z,4.00
2019-03-18T03:06:52.761Z,3.20
2019-03-18T03:09:21.438Z,3.00
2019-03-18T03:11:50.098Z,2.85
2019-03-18T03:14:18.762Z,2.70
2019-03-18T03:16:47.427Z,2.60
2019-03-18T03:19:16.108Z,3.25
2019-03-18T03:21:44.765Z,2.40
2019-03-18T03:24:13.564Z,2.67
2019-03-18T03:26:42.216Z,4.37
2019-03-18T03:29:10.896Z,3.37
2019-03-18T03:31:39.559Z,3.87
2019-03-18T03:34:13.188Z,4.62
2019-03-18T03:36:38.542Z,3.22
2019-03-18T03:39:07.657Z,2.42
2019-03-18T03:41:36.366Z,2.75
2019-03-18T03:44:05.029Z,2.85
2019-03-18T03:46:42.905Z,3.20
2019-03-18T03:49:04.016Z,3.85
2019-03-18T03:51:32.674Z,2.77
2019-03-18T03:54:01.344Z,2.45
2019-03-18T03:56:30.035Z,2.08
2019-03-18T03:58:58.702Z,2.42
2019-03-18T04:01:29.427Z,2.40
2019-03-18T04:03:57.691Z,2.20
2019-03-18T04:06:26.367Z,2.83
2019-03-18T04:08:55.052Z,2.50
2019-03-18T04:11:23.726Z,2.40
2019-03-18T04:13:52.385Z,2.40
2019-03-18T04:16:21.055Z,2.60
2019-03-18T04:18:49.719Z,2.80
2019-03-18T04:21:18.396Z,2.65
2019-03-18T04:23:47.058Z,2.70
2019-03-18T04:26:15.738Z,2.83
2019-03-18T04:28:44.399Z,2.60
2019-03-18T04:31:13.056Z,2.50
2019-03-18T04:33:41.724Z,2.95
2019-03-18T04:36:10.381Z,2.85
2019-03-18T04:38:39.042Z,2.70
2019-03-18T04:41:07.709Z,3.10
2019-03-18T04:43:36.373Z,3.47
2019-03-18T04:46:05.038Z,3.02
2019-03-18T04:48:33.701Z,3.10
2019-03-18T04:51:02.370Z,2.55
2019-03-18T04:53:31.030Z,2.72
2019-03-18T04:55:59.699Z,3.22
2019-03-18T04:58:28.365Z,2.50
2019-03-18T05:00:57.032Z,2.65
2019-03-18T05:03:25.699Z,2.80
2019-03-18T05:05:54.357Z,2.72
2019-03-18T05:08:23.017Z,2.83
2019-03-18T05:10:51.681Z,2.98
2019-03-18T05:13:20.350Z,3.12
2019-03-18T05:15:49.013Z,2.92
2019-03-18T05:18:17.681Z,2.80
2019-03-18T05:20:46.344Z,2.67
2019-03-18T05:23:15.009Z,3.17
2019-03-18T05:25:43.684Z,2.83
2019-03-18T05:28:12.349Z,2.95
2019-03-18T05:30:41.030Z,3.15
2019-03-18T05:33:09.720Z,3.27
2019-03-18T05:35:38.393Z,2.95
2019-03-18T05:38:07.049Z,3.40
2019-03-18T05:40:35.718Z,3.45
2019-03-18T05:43:04.383Z,3.52
2019-03-18T05:45:33.047Z,3.90
2019-03-18T05:48:01.722Z,3.70
2019-03-18T05:50:30.389Z,3.45
2019-03-18T05:52:59.049Z,3.55
2019-03-18T05:55:27.724Z,4.10
2019-03-18T05:57:56.589Z,3.52
2019-03-18T06:00:25.254Z,3.90
2019-03-18T06:02:53.921Z,3.67
2019-03-18T06:05:22.601Z,3.27
2019-03-18T06:07:51.248Z,3.55
2019-03-18T06:10:19.928Z,3.27
2019-03-18T06:12:48.584Z,3.67
2019-03-18T06:15:17.260Z,3.15
2019-03-18T06:17:52.336Z,3.35
2019-03-18T06:20:16.220Z,3.60
2019-03-18T06:22:44.845Z,3.40
2019-03-18T06:25:13.550Z,3.60
2019-03-18T06:27:42.213Z,3.85
2019-03-18T06:30:12.680Z,4.08
2019-03-18T06:32:41.337Z,4.70
2019-03-18T06:35:10.813Z,3.70
2019-03-18T06:37:39.473Z,3.83
2019-03-18T06:40:12.921Z,3.52
2019-03-18T06:42:41.582Z,3.58
2019-03-18T06:45:11.154Z,3.80
2019-03-18T06:47:39.816Z,3.65
2019-03-18T06:50:09.879Z,3.37
2019-03-18T06:52:38.541Z,3.47
2019-03-18T06:55:07.305Z,3.90
2019-03-18T06:57:35.970Z,3.95
2019-03-18T07:00:07.829Z,3.80
2019-03-18T07:02:36.512Z,3.87
2019-03-18T07:05:06.460Z,3.75
2019-03-18T07:07:35.136Z,3.40
2019-03-18T07:10:05.612Z,3.98
2019-03-18T07:12:34.286Z,3.58
2019-03-18T07:15:02.927Z,4.05
2019-03-18T07:17:31.593Z,3.60
2019-03-18T07:20:00.293Z,3.98
2019-03-18T07:22:29.477Z,3.60
2019-03-18T07:24:58.154Z,3.62
2019-03-18T07:27:26.773Z,3.90
2019-03-18T07:29:55.405Z,3.35
2019-03-18T07:32:24.077Z,4.45
2019-03-18T07:34:52.737Z,3.75
2019-03-18T07:37:21.406Z,4.40
2019-03-18T07:39:50.068Z,3.75
2019-03-18T07:42:18.736Z,3.62
2019-03-18T07:44:47.401Z,3.30
2019-03-18T07:47:16.099Z,3.47
2019-03-18T07:49:44.759Z,3.60
2019-03-18T07:52:13.432Z,4.00
2019-03-18T07:54:42.315Z,4.05
2019-03-18T07:57:10.980Z,3.90
2019-03-18T07:59:39.650Z,4.08
2019-03-18T08:02:08.326Z,3.77
2019-03-18T08:04:38.058Z,4.10
2019-03-18T08:07:06.961Z,3.57
2019-03-18T08:09:35.642Z,3.83
2019-03-18T08:12:04.308Z,3.90
2019-03-18T08:14:32.976Z,3.98
2019-03-18T08:17:01.644Z,3.87
2019-03-18T08:19:30.308Z,3.90
2019-03-18T08:21:59.005Z,3.70
2019-03-18T08:24:27.665Z,3.70
2019-03-18T08:26:56.342Z,3.65
2019-03-18T08:29:25.008Z,3.90
2019-03-18T08:31:53.680Z,3.60
2019-03-18T08:34:23.198Z,3.80
2019-03-18T08:36:51.878Z,3.42
2019-03-18T08:39:20.554Z,3.58
2019-03-18T08:41:49.215Z,3.47
2019-03-18T08:44:17.881Z,3.65
2019-03-18T08:46:46.545Z,3.27
2019-03-18T08:49:15.208Z,3.10
2019-03-18T08:51:43.881Z,3.40
2019-03-18T08:54:12.546Z,3.75
2019-03-18T08:56:41.220Z,4.05
2019-03-18T08:59:09.885Z,3.62
2019-03-18T09:01:38.548Z,3.22
2019-03-18T09:04:07.212Z,3.20
2019-03-18T09:06:35.941Z,3.30
2019-03-18T09:09:06.670Z,3.15
2019-03-18T09:11:35.333Z,2.95
2019-03-18T09:14:03.988Z,3.25
2019-03-18T09:16:32.658Z,3.42
2019-03-18T09:19:08.473Z,3.10
2019-03-18T09:21:31.639Z,3.50
2019-03-18T09:24:00.300Z,3.25
2019-03-18T09:26:29.094Z,3.37
2019-03-18T09:28:57.758Z,3.25
2019-03-18T09:31:26.550Z,3.58
2019-03-18T09:33:55.189Z,2.87
2019-03-18T09:36:23.858Z,3.20
2019-03-18T09:38:52.517Z,3.37
2019-03-18T09:41:21.189Z,2.90
2019-03-18T09:43:49.853Z,2.90
2019-03-18T09:46:18.512Z,3.27
2019-03-18T09:48:47.207Z,3.30
2019-03-18T09:51:15.871Z,3.02
2019-03-18T09:53:44.544Z,3.02
2019-03-18T09:56:13.212Z,3.10
2019-03-18T09:58:41.877Z,3.10
2019-03-18T10:01:10.547Z,3.02
2019-03-18T10:03:39.216Z,2.90
2019-03-18T10:06:08.070Z,3.08
2019-03-18T10:08:36.734Z,3.42
2019-03-18T10:11:05.388Z,3.20
2019-03-18T10:13:34.054Z,3.15
2019-03-18T10:16:02.714Z,3.62
2019-03-18T10:18:31.389Z,3.20
2019-03-18T10:21:00.642Z,2.50
2019-03-18T10:23:29.310Z,2.70
2019-03-18T10:25:58.006Z,2.75
2019-03-18T10:28:26.679Z,2.90
2019-03-18T10:30:55.341Z,3.33
2019-03-18T10:33:24.012Z,2.70
2019-03-18T10:35:54.123Z,2.33
2019-03-18T10:38:23.037Z,2.45
2019-03-18T10:40:51.704Z,2.70
2019-03-18T10:43:20.375Z,2.70
2019-03-18T10:45:48.998Z,3.20
2019-03-18T10:48:17.716Z,2.62
2019-03-18T10:50:46.378Z,2.58
2019-03-18T10:53:15.047Z,2.60
2019-03-18T10:55:43.765Z,2.40
2019-03-18T10:58:12.430Z,2.20
2019-03-18T11:00:41.101Z,2.45
2019-03-18T11:03:22.989Z,2.50
2019-03-18T11:05:52.277Z,2.08
2019-03-18T11:08:20.946Z,2.50
2019-03-18T11:10:49.601Z,2.35
2019-03-18T11:13:18.265Z,2.17
2019-03-18T11:15:46.926Z,2.62
2019-03-18T11:18:15.585Z,2.22
2019-03-18T11:20:44.252Z,2.27
2019-03-18T11:23:12.924Z,2.83
2019-03-18T11:25:41.601Z,2.80
2019-03-18T11:28:10.268Z,2.67
2019-03-18T11:30:38.930Z,2.70
2019-03-18T11:33:07.598Z,3.10
2019-03-18T11:35:36.266Z,3.77
2019-03-18T11:38:05.113Z,3.25
2019-03-18T11:40:33.781Z,3.45
2019-03-18T11:43:02.456Z,3.02
2019-03-18T11:45:31.121Z,3.10
2019-03-18T11:47:59.889Z,2.50
2019-03-18T11:50:30.385Z,2.25
2019-03-18T11:52:59.388Z,2.90
2019-03-18T11:55:28.049Z,2.75
2019-03-18T11:57:56.712Z,2.58
2019-03-18T12:00:26.272Z,2.90
2019-03-18T12:02:54.936Z,2.72
2019-03-18T12:05:25.662Z,2.33
2019-03-18T12:07:54.328Z,2.87
2019-03-18T12:10:25.537Z,3.00
2019-03-18T12:12:53.318Z,2.83
2019-03-18T12:15:26.017Z,3.10
2019-03-18T12:17:54.715Z,3.08
2019-03-18T12:20:25.157Z,2.85
2019-03-18T12:22:53.756Z,2.55
2019-03-18T12:25:22.411Z,2.67
2019-03-18T12:27:51.073Z,2.92
2019-03-18T12:30:23.744Z,2.25
2019-03-18T12:32:52.409Z,2.98
2019-03-18T12:35:21.072Z,3.00
2019-03-18T12:37:49.732Z,3.33
2019-03-18T12:40:18.395Z,3.15
2019-03-18T12:42:47.081Z,3.08
2019-03-18T12:45:16.517Z,2.27
2019-03-18T12:47:45.181Z,2.10
2019-03-18T12:50:42.753Z,1.98
2019-03-18T12:55:22.707Z,2.25
2019-03-18T12:57:51.369Z,2.08
2019-03-18T13:00:25.492Z,3.17
2019-03-18T13:02:54.165Z,2.27
2019-03-18T13:05:22.833Z,2.08
2019-03-18T13:07:51.496Z,2.98
2019-03-18T13:10:21.842Z,2.40
2019-03-18T13:12:50.742Z,2.20
2019-03-18T13:15:20.389Z,2.65
2019-03-18T13:17:49.052Z,2.52
2019-03-18T13:20:19.981Z,3.20
2019-03-18T13:22:49.564Z,3.27
2019-03-18T13:25:18.224Z,4.17
2019-03-18T13:27:46.997Z,3.08
2019-03-18T13:30:20.656Z,2.52
2019-03-18T13:32:49.328Z,2.72
2019-03-18T13:35:17.989Z,2.52
2019-03-18T13:37:46.658Z,2.65
2019-03-18T13:40:15.870Z,2.47
2019-03-18T13:42:44.532Z,2.45
2019-03-18T13:45:15.764Z,2.75
2019-03-18T13:47:44.428Z,2.40
2019-03-18T13:50:15.009Z,2.02
2019-03-18T13:52:43.768Z,2.70
2019-03-18T13:55:12.440Z,2.08
2019-03-18T13:57:41.226Z,2.60
2019-03-18T14:00:14.861Z,2.17
2019-03-18T14:02:43.518Z,2.15
2019-03-18T14:05:12.181Z,2.17
2019-03-18T14:07:40.865Z,2.37
2019-03-18T14:10:12.498Z,1.80
2019-03-18T14:12:41.177Z,2.62
2019-03-18T14:15:14.340Z,2.55
2019-03-18T14:17:43.016Z,1.95
2019-03-18T14:20:22.961Z,1.90
2019-03-18T14:22:51.625Z,1.80
2019-03-18T14:25:20.292Z,2.15
2019-03-18T14:27:48.955Z,1.67
2019-03-18T14:30:18.320Z,1.90
2019-03-18T14:32:46.988Z,1.98
2019-03-18T14:35:15.658Z,2.20
2019-03-18T14:37:44.322Z,2.12
2019-03-18T14:40:21.206Z,1.98
2019-03-18T14:42:49.870Z,2.42
2019-03-18T14:45:22.234Z,2.17
2019-03-18T14:47:50.867Z,2.00
2019-03-18T14:50:19.834Z,2.00
2019-03-18T14:52:48.593Z,1.67
2019-03-18T14:55:18.063Z,1.75
2019-03-18T14:57:46.726Z,1.52
2019-03-18T15:00:28.370Z,1.80
2019-03-18T15:02:57.040Z,2.05
2019-03-18T15:05:25.720Z,2.00
2019-03-18T15:07:54.376Z,1.75
2019-03-18T15:10:25.312Z,1.95
2019-03-18T15:15:21.957Z,2.05
2019-03-18T15:17:50.623Z,2.00
2019-03-18T15:20:21.541Z,2.90
2019-03-18T15:25:29.120Z,2.20
2019-03-18T15:27:57.781Z,2.20
2019-03-18T15:30:26.500Z,2.10
2019-03-18T15:32:55.160Z,2.22
2019-03-18T15:35:23.833Z,2.15
2019-03-18T15:37:52.516Z,2.35
2019-03-18T15:40:22.290Z,2.00
2019-03-18T15:42:50.946Z,2.05
2019-03-18T15:45:20.610Z,1.90
2019-03-18T15:47:49.277Z,2.05
2019-03-18T15:50:21.773Z,2.50
2019-03-18T15:52:50.436Z,2.15
2019-03-18T15:55:19.100Z,2.50
2019-03-18T15:57:47.762Z,1.75
2019-03-18T16:00:24.130Z,2.00
2019-03-18T16:02:52.793Z,2.02
2019-03-18T16:05:21.461Z,2.20
2019-03-18T16:07:50.125Z,2.42
2019-03-18T16:10:19.493Z,2.87
2019-03-18T16:12:48.177Z,2.50
2019-03-18T16:15:17.537Z,2.60
2019-03-18T16:17:46.196Z,2.40
2019-03-18T16:20:17.116Z,3.08
2019-03-18T16:25:13.692Z,3.05
2019-03-18T16:27:42.348Z,2.95
2019-03-18T16:30:18.955Z,2.98
2019-03-18T16:32:47.615Z,2.62
2019-03-18T16:35:16.881Z,2.50
2019-03-18T16:37:45.536Z,2.70
2019-03-18T16:40:15.508Z,3.20
2019-03-18T16:42:44.176Z,2.67
2019-03-18T16:45:14.544Z,2.55
2019-03-18T16:47:43.202Z,2.80
2019-03-18T16:50:19.803Z,2.67
2019-03-18T16:52:48.489Z,3.45
2019-03-18T16:55:17.153Z,3.22
2019-03-18T16:57:45.812Z,3.65
2019-03-18T17:00:22.227Z,2.98
2019-03-18T17:02:50.889Z,3.30
2019-03-18T17:05:19.564Z,3.37
2019-03-18T17:07:48.270Z,3.58
2019-03-18T17:10:16.999Z,3.47
2019-03-18T17:12:45.656Z,3.33
2019-03-18T17:15:15.120Z,3.37
2019-03-18T17:17:43.808Z,3.45
2019-03-18T17:20:15.604Z,3.05
2019-03-18T17:22:49.281Z,4.53
2019-03-18T17:25:20.081Z,3.70
2019-03-18T17:27:48.756Z,4.50
2019-03-18T17:30:20.701Z,4.05
2019-03-18T17:32:49.358Z,4.10
2019-03-18T17:35:18.078Z,4.53
2019-03-18T17:37:46.743Z,4.55
2019-03-18T17:40:18.733Z,4.92
2019-03-18T17:42:47.404Z,4.17
2019-03-18T17:45:17.938Z,3.60
2019-03-18T17:47:46.597Z,4.40
2019-03-18T17:50:26.058Z,3.50
2019-03-18T17:53:02.213Z,3.80
2019-03-18T17:55:25.038Z,3.67
2019-03-18T17:57:53.704Z,3.85
2019-03-18T18:00:42.090Z,4.42
2019-03-18T18:03:10.753Z,4.17
2019-03-18T18:05:39.425Z,6.20
2019-03-18T18:08:08.262Z,5.80
2019-03-18T18:10:36.932Z,3.87
2019-03-18T18:13:07.162Z,3.95
2019-03-18T18:15:35.945Z,4.33
2019-03-18T18:18:04.602Z,6.17
2019-03-18T18:20:33.273Z,5.97
2019-03-18T18:23:13.306Z,5.67
2019-03-18T18:25:32.247Z,5.78
2019-03-18T18:28:00.913Z,7.83
2019-03-18T18:30:29.599Z,5.10
2019-03-18T18:32:58.261Z,4.55
2019-03-18T18:35:26.933Z,5.12
2019-03-18T18:37:55.601Z,4.42
2019-03-18T18:40:29.066Z,4.45
2019-03-18T18:42:57.817Z,5.25
2019-03-18T18:45:26.468Z,5.08
2019-03-18T18:47:55.128Z,4.97
2019-03-18T18:50:23.794Z,4.00
2019-03-18T18:52:52.462Z,4.37
2019-03-18T18:55:21.117Z,4.90
2019-03-18T18:57:49.843Z,4.25
2019-03-18T19:00:19.708Z,4.55
2019-03-18T19:02:48.401Z,4.33
2019-03-18T19:05:17.564Z,3.85
2019-03-18T19:07:46.271Z,4.72
2019-03-18T19:10:21.334Z,5.00
2019-03-18T19:12:50.009Z,5.55
2019-03-18T19:15:24.645Z,4.97
2019-03-18T19:17:53.420Z,4.62
2019-03-18T19:20:22.090Z,4.70
2019-03-18T19:22:50.757Z,4.22
2019-03-18T19:25:19.533Z,4.80
2019-03-18T19:27:48.192Z,4.30
2019-03-18T19:30:20.317Z,4.30
2019-03-18T19:32:48.989Z,4.65
2019-03-18T19:35:19.914Z,4.42
2019-03-18T19:40:18.644Z,4.33
2019-03-18T19:45:16.714Z,4.15
2019-03-18T19:47:45.389Z,4.10
2019-03-18T19:50:18.849Z,3.62
2019-03-18T19:52:47.608Z,4.40
2019-03-18T19:55:16.275Z,3.75
2019-03-18T19:57:44.958Z,3.60
2019-03-18T20:00:19.125Z,4.03
2019-03-18T20:02:47.793Z,3.47
2019-03-18T20:05:18.794Z,3.70
2019-03-18T20:07:46.783Z,3.98
2019-03-18T20:10:17.610Z,3.67
2019-03-18T20:15:18.174Z,4.10
2019-03-18T20:17:46.837Z,3.65
2019-03-18T20:20:21.570Z,3.55
2019-03-18T20:22:50.453Z,3.90
2019-03-18T20:25:19.129Z,4.08
2019-03-18T20:27:47.801Z,3.80
2019-03-18T20:30:22.804Z,3.98
2019-03-18T20:32:51.488Z,4.40
2019-03-18T20:35:27.825Z,4.08
2019-03-18T20:37:56.506Z,3.72
2019-03-18T20:40:25.179Z,3.10
2019-03-18T20:42:53.854Z,3.98
2019-03-18T20:45:24.717Z,3.30
2019-03-18T20:50:22.206Z,3.15
2019-03-18T20:52:50.934Z,3.45
2019-03-18T20:55:19.601Z,3.25
2019-03-18T20:57:48.367Z,3.37
2019-03-18T21:00:24.476Z,3.08
2019-03-18T21:02:53.269Z,3.40
2019-03-18T21:05:24.673Z,3.00
2019-03-18T21:07:52.337Z,3.58
2019-03-18T21:10:21.402Z,3.67
2019-03-18T21:12:50.061Z,3.60
2019-03-18T21:15:18.825Z,3.55
2019-03-18T21:17:48.426Z,3.22
2019-03-18T21:20:28.488Z,3.08
2019-03-18T21:22:57.163Z,3.63
2019-03-18T21:25:25.820Z,3.55
2019-03-18T21:27:54.495Z,3.08
2019-03-18T21:30:23.461Z,3.27
2019-03-18T21:32:52.187Z,3.35
2019-03-18T21:35:20.910Z,3.30
2019-03-18T21:37:49.588Z,3.20
2019-03-18T21:40:21.409Z,3.00
2019-03-18T21:42:50.198Z,3.10
2019-03-18T21:45:24.007Z,3.77
2019-03-18T21:47:52.724Z,3.62
2019-03-18T21:50:21.395Z,4.10
2019-03-18T21:52:50.055Z,2.92
2019-03-18T21:55:18.754Z,3.37
2019-03-18T21:57:47.491Z,3.20
2019-03-18T22:00:22.882Z,3.80
2019-03-18T22:02:52.427Z,3.00
2019-03-18T22:05:22.239Z,3.20
2019-03-18T22:07:51.218Z,3.15
2019-03-18T22:10:20.688Z,3.25
2019-03-18T22:12:49.993Z,3.22
2019-03-18T22:15:19.609Z,3.35
2019-03-18T22:17:49.329Z,3.12
2019-03-18T22:20:23.321Z,3.08
2019-03-18T22:22:52.040Z,3.22
2019-03-18T22:25:20.878Z,3.52
2019-03-18T22:27:49.568Z,3.12
2019-03-18T22:30:19.262Z,4.37
2019-03-18T22:32:49.682Z,3.05
2019-03-18T22:35:21.874Z,3.12
2019-03-18T22:37:52.181Z,3.42
2019-03-18T22:40:22.249Z,3.12
2019-03-18T22:42:52.845Z,3.27
2019-03-18T22:45:22.838Z,2.50
2019-03-18T22:47:51.509Z,2.77
2019-03-18T22:50:23.190Z,3.12
2019-03-18T22:52:53.477Z,3.27
2019-03-18T22:55:23.740Z,2.80
2019-03-18T22:57:57.934Z,3.10
2019-03-18T23:00:32.567Z,3.85
2019-03-18T23:03:02.159Z,4.22
2019-03-18T23:05:33.086Z,3.55
2019-03-18T23:10:31.108Z,3.85
2019-03-18T23:13:01.089Z,4.47
2019-03-18T23:15:31.729Z,4.30
2019-03-18T23:18:01.700Z,3.55
2019-03-18T23:20:31.289Z,3.47
2019-03-18T23:22:59.976Z,3.77
2019-03-18T23:25:30.798Z,3.45
2019-03-18T23:30:39.565Z,4.03
2019-03-18T23:33:09.461Z,3.70
2019-03-18T23:35:39.389Z,3.83
2019-03-18T23:38:09.309Z,3.70
2019-03-18T23:40:39.216Z,3.90
2019-03-18T23:43:09.133Z,4.13
2019-03-18T23:45:45.853Z,4.67
2019-03-18T23:48:15.984Z,3.90
2019-03-18T23:50:44.712Z,4.30
2019-03-18T23:53:17.081Z,4.37
2019-03-18T23:55:52.844Z,4.10
2019-03-18T23:58:21.509Z,4.28
